首页
METAR-TAF:

METAR-TAF

机场 :

山美納省, 多米尼加共和国

纬度: 19-16-12N, 经度: 69-44-15W, 海拔: 4米

当前天气观测

该预报发布于35分钟前的14:00 UTC
静风
温度 26°C
湿度 84%
气压 1017 hPa
能見度: 8000
散云层高于1600英尺
散云层高于7000英尺
附近有阵雨

METAR: MDCY 221400Z 00000KT 8000 VCSH SCT016 SCT070 26/23 Q1017

时间: 10:35 (14:35 UTC)

预报

该预报发布于4小时和35分钟前的10:00 UTC
预报有效从22日的 12点(UTC)到 23日的 12点(UTC)
风速节,风向
能见度10公里或以上
少量云层高于1400英尺, 积雨云.
散云层高于1600英尺
短暂存在
从 22日的 13点(UTC)到 22日的 19点(UTC)
能見度: 7000
少量云层高于1400英尺, 积雨云.
多云层高于1600英尺
多云层高于7000英尺
雷暴, 小雨
成为
从 22日的 14点(UTC)到 22日的 16点(UTC)
风速10节,风向

TAF: MDCY 221000Z 2212/2312 00000KT 9999 FEW014CB SCT016 TEMPO 2213/2219 7000 -TSRA FEW014CB BKN016 BKN070 BECMG 2214/2216 09010KT

超过4000个机场的气象观测和天气预报(METAR&TAF报告)。

可查询的气象台以黄色和红色小点在地图上表示。

将鼠标移到小点上方,可查看气象台名称。

然后点击查看天气观测和预报。

如需切换地图:点击带黑十字的绿色按钮放大地图;点击带横线的绿色按钮缩小地图;或者点击绿色箭头查看邻近地区的地图。


METAR-TAF: